createdAt,value
2017-10-03T00:01:04.126Z,11.80
2017-10-03T00:06:04.623Z,11.80
2017-10-03T00:11:03.957Z,11.80
2017-10-03T00:16:03.347Z,11.80
2017-10-03T00:21:04.211Z,11.80
2017-10-03T00:26:03.933Z,11.80
2017-10-03T00:31:04.520Z,11.80
2017-10-03T00:36:03.973Z,11.68
2017-10-03T00:41:04.126Z,11.59
2017-10-03T00:46:04.583Z,11.42
2017-10-03T00:51:03.903Z,11.23
2017-10-03T00:56:03.515Z,11.28
2017-10-03T01:01:04.360Z,11.35
2017-10-03T01:06:04.074Z,11.40
2017-10-03T01:11:04.821Z,11.33
2017-10-03T01:16:03.996Z,11.38
2017-10-03T01:21:08.845Z,11.40
2017-10-03T01:26:03.678Z,11.45
2017-10-03T01:31:08.850Z,11.47
2017-10-03T01:36:03.859Z,11.47
2017-10-03T01:41:08.992Z,11.50
2017-10-03T01:46:03.673Z,11.52
2017-10-03T01:51:03.237Z,11.54
2017-10-03T01:56:04.142Z,11.57
2017-10-03T02:01:04.662Z,11.57
2017-10-03T02:06:03.862Z,11.59
2017-10-03T02:11:04.115Z,11.59
2017-10-03T02:16:08.751Z,11.61
2017-10-03T02:21:03.702Z,11.61
2017-10-03T02:26:03.440Z,11.64
2017-10-03T02:31:04.169Z,11.64
2017-10-03T02:36:03.983Z,11.66
2017-10-03T02:41:04.200Z,11.66
2017-10-03T02:46:04.021Z,11.68
2017-10-03T02:51:03.688Z,11.68
2017-10-03T02:56:09.231Z,11.68
2017-10-03T03:01:04.174Z,11.71
2017-10-03T03:06:03.952Z,11.71
2017-10-03T03:11:05.537Z,11.59
2017-10-03T03:16:04.015Z,11.73
2017-10-03T03:21:04.303Z,11.73
2017-10-03T03:26:03.669Z,11.61
2017-10-03T03:31:08.434Z,11.61
2017-10-03T03:36:04.116Z,11.73
2017-10-03T03:41:04.326Z,11.73
2017-10-03T03:46:04.090Z,11.73
2017-10-03T03:51:03.838Z,11.71
2017-10-03T03:56:03.654Z,11.68
2017-10-03T04:01:03.440Z,11.80
2017-10-03T04:06:03.416Z,11.78
2017-10-03T04:11:03.552Z,11.76
2017-10-03T04:16:04.258Z,11.87
2017-10-03T04:21:04.168Z,11.87
2017-10-03T04:26:03.628Z,11.87
2017-10-03T04:31:03.412Z,11.87
2017-10-03T04:36:04.948Z,11.87
2017-10-03T04:41:03.537Z,11.87
2017-10-03T04:46:04.289Z,11.87
2017-10-03T04:51:04.494Z,11.87
2017-10-03T04:56:03.490Z,11.87
2017-10-03T05:01:04.231Z,11.87
2017-10-03T05:06:04.050Z,11.87
2017-10-03T05:11:04.278Z,11.87
2017-10-03T05:16:04.024Z,11.83
2017-10-03T05:21:04.508Z,11.61
2017-10-03T05:26:03.911Z,11.44
2017-10-03T05:31:03.729Z,11.34
2017-10-03T05:36:03.452Z,11.49
2017-10-03T05:41:03.671Z,11.49
2017-10-03T05:46:03.470Z,11.56
2017-10-03T05:51:04.873Z,11.59
2017-10-03T05:56:04.014Z,11.61
2017-10-03T06:01:08.720Z,11.64
2017-10-03T06:06:03.589Z,11.66
2017-10-03T06:11:03.797Z,11.71
2017-10-03T06:16:03.605Z,11.68
2017-10-03T06:21:04.292Z,11.71
2017-10-03T06:26:03.822Z,11.71
2017-10-03T06:31:03.601Z,11.73
2017-10-03T06:36:04.046Z,11.76
2017-10-03T06:41:04.472Z,11.76
2017-10-03T06:46:04.308Z,11.78
2017-10-03T06:51:04.283Z,11.78
2017-10-03T06:56:04.053Z,11.78
2017-10-03T07:01:03.872Z,11.80
2017-10-03T07:06:04.517Z,11.80
2017-10-03T07:11:04.365Z,11.80
2017-10-03T07:16:04.080Z,11.83
2017-10-03T07:21:04.014Z,11.83
2017-10-03T07:26:03.771Z,11.83
2017-10-03T07:31:03.557Z,11.85
2017-10-03T07:36:03.350Z,11.85
2017-10-03T07:41:03.507Z,11.85
2017-10-03T07:46:04.283Z,11.87
2017-10-03T07:51:04.094Z,11.87
2017-10-03T07:56:03.832Z,11.87
2017-10-03T08:01:03.675Z,11.87
2017-10-03T08:06:03.449Z,11.90
2017-10-03T08:11:03.665Z,11.92
2017-10-03T08:16:03.507Z,11.90
2017-10-03T08:21:04.327Z,11.90
2017-10-03T08:26:04.299Z,11.90
2017-10-03T08:31:04.083Z,11.90
2017-10-03T08:36:04.205Z,11.92
2017-10-03T08:41:03.344Z,11.92
2017-10-03T08:46:04.186Z,11.92
2017-10-03T08:51:03.996Z,11.71
2017-10-03T08:56:03.750Z,11.49
2017-10-03T09:01:03.535Z,11.52
2017-10-03T09:06:04.367Z,11.52
2017-10-03T09:11:03.505Z,11.38
2017-10-03T09:16:04.367Z,11.35
2017-10-03T09:21:04.128Z,11.23
2017-10-03T09:26:03.951Z,11.11
2017-10-03T09:31:03.760Z,11.21
2017-10-03T09:36:04.006Z,11.16
2017-10-03T09:41:03.686Z,11.16
2017-10-03T09:46:03.491Z,11.04
2017-10-03T09:51:04.270Z,10.95
2017-10-03T09:56:09.058Z,10.97
2017-10-03T10:01:04.460Z,10.85
2017-10-03T10:06:03.734Z,10.82
2017-10-03T10:11:03.923Z,10.87
2017-10-03T10:16:03.690Z,10.70
2017-10-03T10:21:08.579Z,10.80
2017-10-03T10:26:04.372Z,10.68
2017-10-03T10:31:04.542Z,10.63
2017-10-03T10:36:03.908Z,10.58
2017-10-03T10:41:04.157Z,10.53
2017-10-03T10:46:05.301Z,10.46
2017-10-03T10:51:03.699Z,10.43
2017-10-03T10:56:03.446Z,10.46
2017-10-03T11:01:04.326Z,10.46
2017-10-03T11:06:04.138Z,10.43
2017-10-03T11:11:04.390Z,10.41
2017-10-03T11:16:03.418Z,10.41
2017-10-03T11:21:04.268Z,10.41
2017-10-03T11:26:04.095Z,10.38
2017-10-03T11:31:05.403Z,10.38
2017-10-03T11:36:05.939Z,10.31
2017-10-03T11:41:03.806Z,10.26
2017-10-03T11:46:03.968Z,10.26
2017-10-03T11:51:05.436Z,10.21
2017-10-03T11:56:03.358Z,10.26
2017-10-03T12:01:04.860Z,10.11
2017-10-03T12:06:04.585Z,10.11
2017-10-03T12:11:05.615Z,10.11
2017-10-03T12:16:05.943Z,10.11
2017-10-03T12:21:05.924Z,10.14
2017-10-03T12:26:04.699Z,10.14
2017-10-03T12:31:03.745Z,10.11
2017-10-03T12:36:03.826Z,10.11
2017-10-03T12:41:03.903Z,10.04
2017-10-03T12:46:03.792Z,10.14
2017-10-03T12:51:03.702Z,10.16
2017-10-03T12:56:06.681Z,10.20
2017-10-03T13:01:03.752Z,10.32
2017-10-03T13:06:05.088Z,10.34
2017-10-03T13:11:05.028Z,10.39
2017-10-03T13:16:05.619Z,10.39
2017-10-03T13:21:04.125Z,10.42
2017-10-03T13:26:03.941Z,10.47
2017-10-03T13:31:03.794Z,10.49
2017-10-03T13:36:03.674Z,10.54
2017-10-03T13:41:03.824Z,10.73
2017-10-03T13:46:03.628Z,10.47
2017-10-03T13:51:09.852Z,10.47
2017-10-03T13:56:03.705Z,10.44
2017-10-03T14:01:03.513Z,10.32
2017-10-03T14:06:04.320Z,10.37
2017-10-03T14:11:03.454Z,10.29
2017-10-03T14:16:05.198Z,10.29
2017-10-03T14:21:05.127Z,10.24
2017-10-03T14:26:03.899Z,10.24
2017-10-03T14:31:03.583Z,10.24
2017-10-03T14:36:04.322Z,10.27
2017-10-03T14:41:04.332Z,10.20
2017-10-03T14:46:04.163Z,10.12
2017-10-03T14:51:03.880Z,10.12
2017-10-03T14:56:03.600Z,10.02
2017-10-03T15:01:03.432Z," 9.99"
2017-10-03T15:06:04.211Z," 9.92"
2017-10-03T15:11:04.323Z," 9.89"
2017-10-03T15:16:04.228Z," 9.94"
2017-10-03T15:21:04.096Z," 9.82"
2017-10-03T15:26:03.754Z," 9.97"
2017-10-03T15:31:03.548Z," 9.74"
2017-10-03T15:36:04.472Z," 9.66"
2017-10-03T15:41:04.016Z," 9.54"
2017-10-03T15:46:03.657Z," 9.77"
2017-10-03T15:51:03.408Z," 9.64"
2017-10-03T15:56:04.129Z," 9.74"
2017-10-03T16:01:04.066Z," 9.69"
2017-10-03T16:06:04.123Z," 9.36"
2017-10-03T16:11:04.662Z," 9.52"
2017-10-03T16:16:04.852Z," 9.47"
2017-10-03T16:21:04.739Z," 9.41"
2017-10-03T16:26:04.477Z," 9.44"
2017-10-03T16:31:04.086Z," 9.39"
2017-10-03T16:36:04.149Z," 9.47"
2017-10-03T16:41:04.421Z," 9.44"
2017-10-03T16:46:04.467Z," 9.49"
2017-10-03T16:51:03.478Z," 9.44"
2017-10-03T16:56:04.353Z," 9.40"
2017-10-03T17:01:04.110Z," 9.37"
2017-10-03T17:06:06.013Z," 9.52"
2017-10-03T17:11:03.926Z," 9.40"
2017-10-03T17:16:03.749Z," 9.45"
2017-10-03T17:21:04.710Z," 9.48"
2017-10-03T17:26:04.262Z," 9.59"
2017-10-03T17:31:04.045Z," 9.59"
2017-10-03T17:36:03.775Z," 9.53"
2017-10-03T17:41:03.983Z," 9.53"
2017-10-03T17:46:03.863Z," 9.53"
2017-10-03T17:51:03.710Z," 9.41"
2017-10-03T17:56:04.047Z," 9.43"
2017-10-03T18:01:04.001Z," 9.43"
2017-10-03T18:06:04.242Z," 9.41"
2017-10-03T18:11:04.899Z," 9.50"
2017-10-03T18:16:05.895Z," 9.41"
2017-10-03T18:21:05.781Z," 9.41"
2017-10-03T18:26:05.087Z," 9.41"
2017-10-03T18:31:05.141Z," 9.41"
2017-10-03T18:36:05.869Z," 9.41"
2017-10-03T18:41:10.553Z," 9.38"
2017-10-03T18:46:05.212Z," 9.29"
2017-10-03T18:51:05.325Z," 9.34"
2017-10-03T18:56:04.997Z," 9.31"
2017-10-03T19:01:05.718Z," 9.37"
2017-10-03T19:06:05.139Z," 9.34"
2017-10-03T19:11:05.731Z," 9.34"
2017-10-03T19:16:05.402Z," 9.51"
2017-10-03T19:21:05.449Z," 9.51"
2017-10-03T19:26:05.145Z," 9.51"
2017-10-03T19:31:05.828Z," 9.54"
2017-10-03T19:36:04.311Z," 9.54"
2017-10-03T19:41:04.306Z," 9.54"
2017-10-03T19:46:03.837Z," 9.54"
2017-10-03T19:51:03.716Z," 9.56"
2017-10-03T19:56:04.255Z," 9.54"
2017-10-03T20:01:03.582Z," 9.56"
2017-10-03T20:06:04.243Z," 9.56"
2017-10-03T20:11:03.680Z," 9.61"
2017-10-03T20:16:03.574Z," 9.54"
2017-10-03T20:21:04.385Z," 9.56"
2017-10-03T20:26:04.208Z," 9.54"
2017-10-03T20:31:04.429Z," 9.56"
2017-10-03T20:36:04.054Z," 9.59"
2017-10-03T20:41:04.349Z," 9.56"
2017-10-03T20:46:04.118Z," 9.59"
2017-10-03T20:51:03.886Z," 9.56"
2017-10-03T20:56:03.676Z," 9.59"
2017-10-03T21:01:04.417Z," 9.56"
2017-10-03T21:06:04.202Z," 9.56"
2017-10-03T21:11:04.357Z," 9.51"
2017-10-03T21:16:04.141Z," 9.54"
2017-10-03T21:21:04.005Z," 9.54"
2017-10-03T21:26:03.739Z," 9.56"
2017-10-03T21:31:03.633Z," 9.59"
2017-10-03T21:36:04.371Z," 9.48"
2017-10-03T21:41:03.657Z," 9.46"
2017-10-03T21:46:03.591Z," 9.34"
2017-10-03T21:51:03.436Z," 9.29"
2017-10-03T21:56:04.192Z," 9.29"
2017-10-03T22:01:04.217Z," 9.26"
2017-10-03T22:06:03.855Z," 9.29"
2017-10-03T22:11:04.109Z," 9.24"
2017-10-03T22:16:03.893Z," 9.29"
2017-10-03T22:21:03.714Z," 9.29"
2017-10-03T22:26:03.486Z," 9.26"
2017-10-03T22:31:04.305Z," 9.29"
2017-10-03T22:36:04.322Z," 9.24"
2017-10-03T22:41:04.224Z," 9.24"
2017-10-03T22:46:03.927Z," 9.24"
2017-10-03T22:51:03.719Z," 9.21"
2017-10-03T22:56:03.413Z," 9.21"
2017-10-03T23:01:04.294Z," 9.16"
2017-10-03T23:06:04.308Z," 9.11"
2017-10-03T23:11:04.311Z," 9.11"
2017-10-03T23:16:04.036Z," 9.06"
2017-10-03T23:21:03.957Z," 8.86"
2017-10-03T23:26:03.693Z," 8.78"
2017-10-03T23:31:03.464Z," 8.75"
2017-10-03T23:36:04.252Z," 8.75"
2017-10-03T23:41:04.313Z," 8.78"
2017-10-03T23:46:04.111Z," 8.78"
2017-10-03T23:51:03.869Z," 8.78"
2017-10-03T23:56:03.928Z," 8.75"
